sensor_id;sensor_type;location;lat;lon;timestamp;pressure;altitude;pressure_sealevel;temperature
68440;BMP180;55421;51.600;5.718;2023-11-21T00:00:47;163596.41;;;7.80
68440;BMP180;55421;51.600;5.718;2023-11-21T00:03:34;163596.41;;;7.80
68440;BMP180;55421;51.600;5.718;2023-11-21T00:06:01;163592.80;;;7.80
68440;BMP180;55421;51.600;5.718;2023-11-21T00:08:28;163602.41;;;7.80
68440;BMP180;55421;51.600;5.718;2023-11-21T00:10:55;163600.00;;;7.80
68440;BMP180;55421;51.600;5.718;2023-11-21T00:13:21;163595.59;;;7.80
68440;BMP180;55421;51.600;5.718;2023-11-21T00:15:48;163588.80;;;7.80
68440;BMP180;55421;51.600;5.718;2023-11-21T00:18:14;163586.41;;;7.80
68440;BMP180;55421;51.600;5.718;2023-11-21T00:20:40;163578.41;;;7.80
68440;BMP180;55421;51.600;5.718;2023-11-21T00:23:07;163570.00;;;7.70
68440;BMP180;55421;51.600;5.718;2023-11-21T00:25:33;163565.20;;;7.70
68440;BMP180;55421;51.600;5.718;2023-11-21T00:28:00;163562.80;;;7.70
68440;BMP180;55421;51.600;5.718;2023-11-21T00:30:28;163549.20;;;7.70
68440;BMP180;55421;51.600;5.718;2023-11-21T00:32:55;163547.59;;;7.70
68440;BMP180;55421;51.600;5.718;2023-11-21T00:35:21;163535.20;;;7.64
68440;BMP180;55421;51.600;5.718;2023-11-21T00:37:48;163519.41;;;7.60
68440;BMP180;55421;51.600;5.718;2023-11-21T00:40:16;163507.00;;;7.60
68440;BMP180;55421;51.600;5.718;2023-11-21T00:42:45;163493.41;;;7.52
68440;BMP180;55421;51.600;5.718;2023-11-21T00:45:12;163476.20;;;7.50
68440;BMP180;55421;51.600;5.718;2023-11-21T00:47:39;163455.80;;;7.50
68440;BMP180;55421;51.600;5.718;2023-11-21T00:50:06;163438.59;;;7.40
68440;BMP180;55421;51.600;5.718;2023-11-21T00:52:33;163417.00;;;7.40
68440;BMP180;55421;51.600;5.718;2023-11-21T00:54:59;163395.00;;;7.30
68440;BMP180;55421;51.600;5.718;2023-11-21T00:57:26;163375.59;;;7.30
68440;BMP180;55421;51.600;5.718;2023-11-21T00:59:53;163356.80;;;7.20
68440;BMP180;55421;51.600;5.718;2023-11-21T01:02:19;163333.59;;;7.20
68440;BMP180;55421;51.600;5.718;2023-11-21T01:04:46;163315.20;;;7.10
68440;BMP180;55421;51.600;5.718;2023-11-21T01:07:14;163305.20;;;7.10
68440;BMP180;55421;51.600;5.718;2023-11-21T01:09:40;163296.80;;;7.10
68440;BMP180;55421;51.600;5.718;2023-11-21T01:12:07;163299.20;;;7.10
68440;BMP180;55421;51.600;5.718;2023-11-21T01:14:33;163295.59;;;7.10
68440;BMP180;55421;51.600;5.718;2023-11-21T01:17:00;163286.59;;;7.10
68440;BMP180;55421;51.600;5.718;2023-11-21T01:19:26;163284.80;;;7.10
68440;BMP180;55421;51.600;5.718;2023-11-21T01:21:54;163285.59;;;7.10
68440;BMP180;55421;51.600;5.718;2023-11-21T01:24:21;163289.80;;;7.10
68440;BMP180;55421;51.600;5.718;2023-11-21T01:26:47;163290.00;;;7.10
68440;BMP180;55421;51.600;5.718;2023-11-21T01:29:14;163292.20;;;7.10
68440;BMP180;55421;51.600;5.718;2023-11-21T01:31:43;163291.00;;;7.10
68440;BMP180;55421;51.600;5.718;2023-11-21T01:34:09;163288.80;;;7.10
68440;BMP180;55421;51.600;5.718;2023-11-21T01:36:35;163288.80;;;7.10
68440;BMP180;55421;51.600;5.718;2023-11-21T01:39:02;163283.59;;;7.10
68440;BMP180;55421;51.600;5.718;2023-11-21T01:41:34;163289.80;;;7.10
68440;BMP180;55421;51.600;5.718;2023-11-21T01:44:01;163293.20;;;7.10
68440;BMP180;55421;51.600;5.718;2023-11-21T01:46:28;163300.41;;;7.10
68440;BMP180;55421;51.600;5.718;2023-11-21T01:48:55;163307.20;;;7.10
68440;BMP180;55421;51.600;5.718;2023-11-21T01:51:22;163310.41;;;7.10
68440;BMP180;55421;51.600;5.718;2023-11-21T01:53:49;163315.20;;;7.10
68440;BMP180;55421;51.600;5.718;2023-11-21T01:56:16;163315.20;;;7.12
68440;BMP180;55421;51.600;5.718;2023-11-21T01:58:43;163318.41;;;7.10
68440;BMP180;55421;51.600;5.718;2023-11-21T02:01:10;163326.00;;;7.20
68440;BMP180;55421;51.600;5.718;2023-11-21T02:03:36;163331.20;;;7.20
68440;BMP180;55421;51.600;5.718;2023-11-21T02:06:04;163337.59;;;7.20
68440;BMP180;55421;51.600;5.718;2023-11-21T02:08:31;163349.20;;;7.20
68440;BMP180;55421;51.600;5.718;2023-11-21T02:10:58;163353.59;;;7.20
68440;BMP180;55421;51.600;5.718;2023-11-21T02:13:24;163363.20;;;7.24
68440;BMP180;55421;51.600;5.718;2023-11-21T02:15:51;163368.41;;;7.24
68440;BMP180;55421;51.600;5.718;2023-11-21T02:18:18;163374.00;;;7.30
68440;BMP180;55421;51.600;5.718;2023-11-21T02:20:45;163383.59;;;7.30
68440;BMP180;55421;51.600;5.718;2023-11-21T02:23:12;163382.41;;;7.30
68440;BMP180;55421;51.600;5.718;2023-11-21T02:25:39;163385.59;;;7.30
68440;BMP180;55421;51.600;5.718;2023-11-21T02:28:05;163382.41;;;7.30
68440;BMP180;55421;51.600;5.718;2023-11-21T02:30:33;163382.41;;;7.30
68440;BMP180;55421;51.600;5.718;2023-11-21T02:33:01;163375.20;;;7.30
68440;BMP180;55421;51.600;5.718;2023-11-21T02:35:28;163373.20;;;7.30
68440;BMP180;55421;51.600;5.718;2023-11-21T02:37:57;163369.20;;;7.30
68440;BMP180;55421;51.600;5.718;2023-11-21T02:40:23;163366.00;;;7.28
68440;BMP180;55421;51.600;5.718;2023-11-21T02:42:51;163362.00;;;7.20
68440;BMP180;55421;51.600;5.718;2023-11-21T02:45:20;163358.41;;;7.20
68440;BMP180;55421;51.600;5.718;2023-11-21T02:47:50;163355.20;;;7.20
68440;BMP180;55421;51.600;5.718;2023-11-21T02:50:19;163356.00;;;7.20
68440;BMP180;55421;51.600;5.718;2023-11-21T02:52:46;163350.41;;;7.20
68440;BMP180;55421;51.600;5.718;2023-11-21T02:55:13;163340.41;;;7.20
68440;BMP180;55421;51.600;5.718;2023-11-21T02:57:39;163337.59;;;7.20
68440;BMP180;55421;51.600;5.718;2023-11-21T03:00:07;163329.59;;;7.20
68440;BMP180;55421;51.600;5.718;2023-11-21T03:02:34;163328.41;;;7.20
68440;BMP180;55421;51.600;5.718;2023-11-21T03:05:07;163327.20;;;7.20
68440;BMP180;55421;51.600;5.718;2023-11-21T03:07:37;163323.59;;;7.18
68440;BMP180;55421;51.600;5.718;2023-11-21T03:10:04;163322.41;;;7.18
68440;BMP180;55421;51.600;5.718;2023-11-21T03:12:31;163324.41;;;7.16
68440;BMP180;55421;51.600;5.718;2023-11-21T03:14:57;163321.59;;;7.18
68440;BMP180;55421;51.600;5.718;2023-11-21T03:17:23;163313.59;;;7.10
68440;BMP180;55421;51.600;5.718;2023-11-21T03:19:51;163302.80;;;7.10
68440;BMP180;55421;51.600;5.718;2023-11-21T03:22:18;163293.20;;;7.10
68440;BMP180;55421;51.600;5.718;2023-11-21T03:24:45;163290.00;;;7.10
68440;BMP180;55421;51.600;5.718;2023-11-21T03:27:12;163282.59;;;7.10
68440;BMP180;55421;51.600;5.718;2023-11-21T03:29:38;163277.80;;;7.06
68440;BMP180;55421;51.600;5.718;2023-11-21T03:32:06;163274.20;;;7.06
68440;BMP180;55421;51.600;5.718;2023-11-21T03:34:33;163271.00;;;7.00
68440;BMP180;55421;51.600;5.718;2023-11-21T03:37:00;163268.59;;;7.00
68440;BMP180;55421;51.600;5.718;2023-11-21T03:39:26;163265.80;;;7.00
68440;BMP180;55421;51.600;5.718;2023-11-21T03:41:52;163268.59;;;7.00
68440;BMP180;55421;51.600;5.718;2023-11-21T03:44:19;163267.80;;;7.00
68440;BMP180;55421;51.600;5.718;2023-11-21T03:46:45;163263.00;;;7.00
68440;BMP180;55421;51.600;5.718;2023-11-21T03:49:12;163274.59;;;7.04
68440;BMP180;55421;51.600;5.718;2023-11-21T03:51:38;163278.59;;;7.08
68440;BMP180;55421;51.600;5.718;2023-11-21T03:54:05;163273.41;;;7.04
68440;BMP180;55421;51.600;5.718;2023-11-21T03:56:32;163272.20;;;7.04
68440;BMP180;55421;51.600;5.718;2023-11-21T03:58:58;163270.20;;;7.00
68440;BMP180;55421;51.600;5.718;2023-11-21T04:01:25;163274.59;;;7.02
68440;BMP180;55421;51.600;5.718;2023-11-21T04:03:51;163272.20;;;7.02
68440;BMP180;55421;51.600;5.718;2023-11-21T04:06:18;163265.00;;;7.00
68440;BMP180;55421;51.600;5.718;2023-11-21T04:08:45;163266.59;;;7.00
68440;BMP180;55421;51.600;5.718;2023-11-21T04:11:12;163265.80;;;7.00
68440;BMP180;55421;51.600;5.718;2023-11-21T04:13:40;163261.00;;;7.00
68440;BMP180;55421;51.600;5.718;2023-11-21T04:16:08;163258.59;;;7.00
68440;BMP180;55421;51.600;5.718;2023-11-21T04:18:38;163251.00;;;7.00
68440;BMP180;55421;51.600;5.718;2023-11-21T04:21:06;163249.80;;;7.00
68440;BMP180;55421;51.600;5.718;2023-11-21T04:23:33;163243.80;;;7.00
68440;BMP180;55421;51.600;5.718;2023-11-21T04:26:00;163230.59;;;6.90
68440;BMP180;55421;51.600;5.718;2023-11-21T04:28:28;163220.59;;;6.90
68440;BMP180;55421;51.600;5.718;2023-11-21T04:30:55;163205.80;;;6.90
68440;BMP180;55421;51.600;5.718;2023-11-21T04:33:21;163192.20;;;6.90
68440;BMP180;55421;51.600;5.718;2023-11-21T04:35:48;163189.80;;;6.84
68440;BMP180;55421;51.600;5.718;2023-11-21T04:38:15;163187.41;;;6.80
68440;BMP180;55421;51.600;5.718;2023-11-21T04:40:41;163184.20;;;6.80
68440;BMP180;55421;51.600;5.718;2023-11-21T04:43:08;163178.59;;;6.80
68440;BMP180;55421;51.600;5.718;2023-11-21T04:45:34;163172.59;;;6.80
68440;BMP180;55421;51.600;5.718;2023-11-21T04:48:01;163175.41;;;6.80
68440;BMP180;55421;51.600;5.718;2023-11-21T04:50:27;163168.20;;;6.80
68440;BMP180;55421;51.600;5.718;2023-11-21T04:52:54;163161.00;;;6.80
68440;BMP180;55421;51.600;5.718;2023-11-21T04:55:20;163166.20;;;6.80
68440;BMP180;55421;51.600;5.718;2023-11-21T04:57:47;163162.59;;;6.80
68440;BMP180;55421;51.600;5.718;2023-11-21T05:00:14;163155.41;;;6.78
68440;BMP180;55421;51.600;5.718;2023-11-21T05:02:42;163154.20;;;6.80
68440;BMP180;55421;51.600;5.718;2023-11-21T05:05:10;163146.00;;;6.74
68440;BMP180;55421;51.600;5.718;2023-11-21T05:07:37;163136.00;;;6.70
68440;BMP180;55421;51.600;5.718;2023-11-21T05:10:07;163128.41;;;6.70
68440;BMP180;55421;51.600;5.718;2023-11-21T05:12:37;163116.41;;;6.70
68440;BMP180;55421;51.600;5.718;2023-11-21T05:15:06;163123.59;;;6.70
68440;BMP180;55421;51.600;5.718;2023-11-21T05:17:39;163126.41;;;6.70
68440;BMP180;55421;51.600;5.718;2023-11-21T05:20:11;163117.59;;;6.70
68440;BMP180;55421;51.600;5.718;2023-11-21T05:22:40;163103.20;;;6.60
68440;BMP180;55421;51.600;5.718;2023-11-21T05:25:08;163103.20;;;6.60
68440;BMP180;55421;51.600;5.718;2023-11-21T05:27:35;163107.20;;;6.68
68440;BMP180;55421;51.600;5.718;2023-11-21T05:30:04;163105.20;;;6.64
68440;BMP180;55421;51.600;5.718;2023-11-21T05:32:38;163111.59;;;6.64
68440;BMP180;55421;51.600;5.718;2023-11-21T05:35:05;163112.80;;;6.70
68440;BMP180;55421;51.600;5.718;2023-11-21T05:37:45;163117.59;;;6.70
68440;BMP180;55421;51.600;5.718;2023-11-21T05:40:13;163128.41;;;6.70
68440;BMP180;55421;51.600;5.718;2023-11-21T05:42:40;163128.41;;;6.70
68440;BMP180;55421;51.600;5.718;2023-11-21T05:45:08;163132.41;;;6.70
68440;BMP180;55421;51.600;5.718;2023-11-21T05:47:48;163131.20;;;6.70
68440;BMP180;55421;51.600;5.718;2023-11-21T05:50:16;163135.20;;;6.70
68440;BMP180;55421;51.600;5.718;2023-11-21T05:52:46;163133.20;;;6.70
68440;BMP180;55421;51.600;5.718;2023-11-21T05:55:13;163136.41;;;6.70
68440;BMP180;55421;51.600;5.718;2023-11-21T05:57:42;163135.59;;;6.70
68440;BMP180;55421;51.600;5.718;2023-11-21T06:00:14;163132.41;;;6.70
68440;BMP180;55421;51.600;5.718;2023-11-21T06:02:48;163133.59;;;6.70
68440;BMP180;55421;51.600;5.718;2023-11-21T06:05:17;163132.80;;;6.70
68440;BMP180;55421;51.600;5.718;2023-11-21T06:07:45;163130.00;;;6.70
68440;BMP180;55421;51.600;5.718;2023-11-21T06:10:12;163126.80;;;6.70
68440;BMP180;55421;51.600;5.718;2023-11-21T06:12:44;163131.20;;;6.70
68440;BMP180;55421;51.600;5.718;2023-11-21T06:15:11;163130.41;;;6.70
68440;BMP180;55421;51.600;5.718;2023-11-21T06:17:42;163132.41;;;6.70
68440;BMP180;55421;51.600;5.718;2023-11-21T06:20:11;163136.00;;;6.70
68440;BMP180;55421;51.600;5.718;2023-11-21T06:22:42;163144.00;;;6.70
68440;BMP180;55421;51.600;5.718;2023-11-21T06:25:11;163142.00;;;6.70
68440;BMP180;55421;51.600;5.718;2023-11-21T06:27:45;163147.00;;;6.70
68440;BMP180;55421;51.600;5.718;2023-11-21T06:30:13;163152.00;;;6.74
68440;BMP180;55421;51.600;5.718;2023-11-21T06:32:42;163156.59;;;6.80
68440;BMP180;55421;51.600;5.718;2023-11-21T06:35:12;163174.59;;;6.80
68440;BMP180;55421;51.600;5.718;2023-11-21T06:37:39;163179.41;;;6.80
68440;BMP180;55421;51.600;5.718;2023-11-21T06:40:07;163182.20;;;6.80
68440;BMP180;55421;51.600;5.718;2023-11-21T06:42:34;163187.41;;;6.84
68440;BMP180;55421;51.600;5.718;2023-11-21T06:45:00;163197.80;;;6.90
68440;BMP180;55421;51.600;5.718;2023-11-21T06:47:30;163209.00;;;6.90
68440;BMP180;55421;51.600;5.718;2023-11-21T06:49:56;163213.80;;;6.90
68440;BMP180;55421;51.600;5.718;2023-11-21T06:52:24;163220.59;;;6.90
68440;BMP180;55421;51.600;5.718;2023-11-21T06:54:50;163225.00;;;6.90
68440;BMP180;55421;51.600;5.718;2023-11-21T06:57:17;163226.59;;;6.90
68440;BMP180;55421;51.600;5.718;2023-11-21T06:59:45;163228.59;;;6.90
68440;BMP180;55421;51.600;5.718;2023-11-21T07:02:11;163231.41;;;6.92
68440;BMP180;55421;51.600;5.718;2023-11-21T07:04:38;163237.00;;;6.98
68440;BMP180;55421;51.600;5.718;2023-11-21T07:07:06;163238.20;;;7.00
68440;BMP180;55421;51.600;5.718;2023-11-21T07:09:35;163242.59;;;7.00
68440;BMP180;55421;51.600;5.718;2023-11-21T07:12:02;163244.20;;;7.00
68440;BMP180;55421;51.600;5.718;2023-11-21T07:14:30;163247.41;;;7.00
68440;BMP180;55421;51.600;5.718;2023-11-21T07:16:56;163252.59;;;7.00
68440;BMP180;55421;51.600;5.718;2023-11-21T07:19:23;163254.20;;;7.00
68440;BMP180;55421;51.600;5.718;2023-11-21T07:21:49;163252.59;;;7.00
68440;BMP180;55421;51.600;5.718;2023-11-21T07:24:19;163251.00;;;7.00
68440;BMP180;55421;51.600;5.718;2023-11-21T07:26:45;163255.00;;;7.00
68440;BMP180;55421;51.600;5.718;2023-11-21T07:29:12;163257.41;;;7.00
68440;BMP180;55421;51.600;5.718;2023-11-21T07:31:39;163256.20;;;7.00
68440;BMP180;55421;51.600;5.718;2023-11-21T07:34:07;163259.80;;;7.00
68440;BMP180;55421;51.600;5.718;2023-11-21T07:36:34;163261.80;;;7.00
68440;BMP180;55421;51.600;5.718;2023-11-21T07:39:00;163267.00;;;7.00
68440;BMP180;55421;51.600;5.718;2023-11-21T07:41:28;163272.20;;;7.06
68440;BMP180;55421;51.600;5.718;2023-11-21T07:43:56;163277.80;;;7.10
68440;BMP180;55421;51.600;5.718;2023-11-21T07:46:22;163285.59;;;7.10
68440;BMP180;55421;51.600;5.718;2023-11-21T07:48:50;163292.00;;;7.10
68440;BMP180;55421;51.600;5.718;2023-11-21T07:51:18;163290.00;;;7.10
68440;BMP180;55421;51.600;5.718;2023-11-21T07:53:45;163298.00;;;7.10
68440;BMP180;55421;51.600;5.718;2023-11-21T07:56:11;163318.00;;;7.12
68440;BMP180;55421;51.600;5.718;2023-11-21T07:58:39;163346.00;;;7.20
68440;BMP180;55421;51.600;5.718;2023-11-21T08:01:05;163359.59;;;7.20
68440;BMP180;55421;51.600;5.718;2023-11-21T08:03:33;163378.80;;;7.30
68440;BMP180;55421;51.600;5.718;2023-11-21T08:06:00;163397.80;;;7.30
68440;BMP180;55421;51.600;5.718;2023-11-21T08:08:26;163421.41;;;7.40
68440;BMP180;55421;51.600;5.718;2023-11-21T08:10:53;163445.80;;;7.42
68440;BMP180;55421;51.600;5.718;2023-11-21T08:13:24;163467.80;;;7.50
68440;BMP180;55421;51.600;5.718;2023-11-21T08:15:54;163499.80;;;7.60
68440;BMP180;55421;51.600;5.718;2023-11-21T08:18:20;163520.20;;;7.60
68440;BMP180;55421;51.600;5.718;2023-11-21T08:20:48;163542.00;;;7.70
68440;BMP180;55421;51.600;5.718;2023-11-21T08:23:17;163564.00;;;7.70
68440;BMP180;55421;51.600;5.718;2023-11-21T08:25:44;163613.59;;;7.82
68440;BMP180;55421;51.600;5.718;2023-11-21T08:28:12;163657.00;;;7.90
68440;BMP180;55421;51.600;5.718;2023-11-21T08:30:43;163686.20;;;8.00
68440;BMP180;55421;51.600;5.718;2023-11-21T08:33:09;163707.41;;;8.06
68440;BMP180;55421;51.600;5.718;2023-11-21T08:35:37;163729.00;;;8.10
68440;BMP180;55421;51.600;5.718;2023-11-21T08:38:04;163749.41;;;8.14
68440;BMP180;55421;51.600;5.718;2023-11-21T08:40:31;163765.41;;;8.20
68440;BMP180;55421;51.600;5.718;2023-11-21T08:42:57;163777.41;;;8.20
68440;BMP180;55421;51.600;5.718;2023-11-21T08:45:27;163796.41;;;8.30
68440;BMP180;55421;51.600;5.718;2023-11-21T08:47:54;163805.59;;;8.30
68440;BMP180;55421;51.600;5.718;2023-11-21T08:50:20;163827.20;;;8.30
68440;BMP180;55421;51.600;5.718;2023-11-21T08:52:48;163832.80;;;8.30
68440;BMP180;55421;51.600;5.718;2023-11-21T08:55:15;163827.20;;;8.30
68440;BMP180;55421;51.600;5.718;2023-11-21T08:57:44;163836.41;;;8.36
68440;BMP180;55421;51.600;5.718;2023-11-21T09:00:11;163856.00;;;8.40
68440;BMP180;55421;51.600;5.718;2023-11-21T09:02:39;163868.00;;;8.40
68440;BMP180;55421;51.600;5.718;2023-11-21T09:05:12;163896.59;;;8.50
68440;BMP180;55421;51.600;5.718;2023-11-21T09:07:41;163901.41;;;8.50
68440;BMP180;55421;51.600;5.718;2023-11-21T09:10:09;163907.80;;;8.50
68440;BMP180;55421;51.600;5.718;2023-11-21T09:12:37;163932.59;;;8.60
68440;BMP180;55421;51.600;5.718;2023-11-21T09:15:05;163953.41;;;8.60
68440;BMP180;55421;51.600;5.718;2023-11-21T09:17:33;163971.41;;;8.70
68440;BMP180;55421;51.600;5.718;2023-11-21T09:20:04;163987.00;;;8.70
68440;BMP180;55421;51.600;5.718;2023-11-21T09:22:32;164015.00;;;8.78
68440;BMP180;55421;51.600;5.718;2023-11-21T09:24:59;164037.20;;;8.80
68440;BMP180;55421;51.600;5.718;2023-11-21T09:27:25;164056.41;;;8.90
68440;BMP180;55421;51.600;5.718;2023-11-21T09:29:52;164062.00;;;8.90
68440;BMP180;55421;51.600;5.718;2023-11-21T09:32:20;164085.20;;;8.90
68440;BMP180;55421;51.600;5.718;2023-11-21T09:34:50;164108.41;;;9.00
68440;BMP180;55421;51.600;5.718;2023-11-21T09:37:17;164136.59;;;9.08
68440;BMP180;55421;51.600;5.718;2023-11-21T09:39:43;164163.80;;;9.10
68440;BMP180;55421;51.600;5.718;2023-11-21T09:42:16;164173.80;;;9.12
68440;BMP180;55421;51.600;5.718;2023-11-21T09:45:18;164182.20;;;9.20
68440;BMP180;55421;51.600;5.718;2023-11-21T09:47:47;164211.41;;;9.20
68440;BMP180;55421;51.600;5.718;2023-11-21T09:50:17;164201.41;;;9.20
68440;BMP180;55421;51.600;5.718;2023-11-21T09:53:17;164214.59;;;9.20
68440;BMP180;55421;51.600;5.718;2023-11-21T09:55:47;164218.20;;;9.20
68440;BMP180;55421;51.600;5.718;2023-11-21T09:58:14;164202.59;;;9.20
68440;BMP180;55421;51.600;5.718;2023-11-21T10:00:47;164169.80;;;9.10
68440;BMP180;55421;51.600;5.718;2023-11-21T10:03:15;164147.00;;;9.10
68440;BMP180;55421;51.600;5.718;2023-11-21T10:05:43;164136.59;;;9.00
68440;BMP180;55421;51.600;5.718;2023-11-21T10:08:12;164134.20;;;9.00
68440;BMP180;55421;51.600;5.718;2023-11-21T10:10:49;164134.20;;;9.00
68440;BMP180;55421;51.600;5.718;2023-11-21T10:13:18;164136.59;;;9.06
68440;BMP180;55421;51.600;5.718;2023-11-21T10:15:51;164135.59;;;9.00
68440;BMP180;55421;51.600;5.718;2023-11-21T10:18:18;164139.80;;;9.04
68440;BMP180;55421;51.600;5.718;2023-11-21T10:20:45;164135.80;;;9.00
68440;BMP180;55421;51.600;5.718;2023-11-21T10:23:20;164138.59;;;9.04
68440;BMP180;55421;51.600;5.718;2023-11-21T10:25:47;164140.20;;;9.04
68440;BMP180;55421;51.600;5.718;2023-11-21T10:28:15;164144.59;;;9.10
68440;BMP180;55421;51.600;5.718;2023-11-21T10:30:42;164160.20;;;9.10
68440;BMP180;55421;51.600;5.718;2023-11-21T10:33:08;164179.80;;;9.10
68440;BMP180;55421;51.600;5.718;2023-11-21T10:38:08;164203.80;;;9.20
68440;BMP180;55421;51.600;5.718;2023-11-21T10:40:44;164216.20;;;9.20
68440;BMP180;55421;51.600;5.718;2023-11-21T10:43:11;164221.41;;;9.20
68440;BMP180;55421;51.600;5.718;2023-11-21T10:45:39;164226.59;;;9.20
68440;BMP180;55421;51.600;5.718;2023-11-21T10:48:07;164235.80;;;9.30
68440;BMP180;55421;51.600;5.718;2023-11-21T10:50:35;164252.59;;;9.30
68440;BMP180;55421;51.600;5.718;2023-11-21T10:53:05;164286.41;;;9.40
68440;BMP180;55421;51.600;5.718;2023-11-21T10:55:33;164280.00;;;9.40
68440;BMP180;55421;51.600;5.718;2023-11-21T10:58:03;164298.00;;;9.40
68440;BMP180;55421;51.600;5.718;2023-11-21T11:00:33;164330.41;;;9.50
68440;BMP180;55421;51.600;5.718;2023-11-21T11:03:02;164362.20;;;9.58
68440;BMP180;55421;51.600;5.718;2023-11-21T11:05:29;164396.59;;;9.62
68440;BMP180;55421;51.600;5.718;2023-11-21T11:08:05;164427.00;;;9.70
68440;BMP180;55421;51.600;5.718;2023-11-21T11:10:32;164467.00;;;9.80
68440;BMP180;55421;51.600;5.718;2023-11-21T11:12:59;164494.59;;;9.90
68440;BMP180;55421;51.600;5.718;2023-11-21T11:15:28;164514.80;;;9.90
68440;BMP180;55421;51.600;5.718;2023-11-21T11:17:55;164539.20;;;10.00
68440;BMP180;55421;51.600;5.718;2023-11-21T11:20:36;164543.59;;;10.00
68440;BMP180;55421;51.600;5.718;2023-11-21T11:26:55;164488.59;;;9.82
68440;BMP180;55421;51.600;5.718;2023-11-21T11:29:34;164469.00;;;9.80
68440;BMP180;55421;51.600;5.718;2023-11-21T11:32:36;164457.41;;;9.80
68440;BMP180;55421;51.600;5.718;2023-11-21T11:35:17;164451.80;;;9.80
68440;BMP180;55421;51.600;5.718;2023-11-21T11:37:45;164411.41;;;9.70
68440;BMP180;55421;51.600;5.718;2023-11-21T11:40:12;164367.59;;;9.60
68440;BMP180;55421;51.600;5.718;2023-11-21T11:42:39;164360.00;;;9.60
68440;BMP180;55421;51.600;5.718;2023-11-21T11:45:19;164381.00;;;9.60
68440;BMP180;55421;51.600;5.718;2023-11-21T11:47:48;164400.20;;;9.66
68440;BMP180;55421;51.600;5.718;2023-11-21T11:50:14;164415.41;;;9.70
68440;BMP180;55421;51.600;5.718;2023-11-21T11:52:47;164437.80;;;9.72
68440;BMP180;55421;51.600;5.718;2023-11-21T11:55:16;164447.80;;;9.80
68440;BMP180;55421;51.600;5.718;2023-11-21T11:57:53;164444.59;;;9.72
68440;BMP180;55421;51.600;5.718;2023-11-21T12:03:01;164399.00;;;9.68
68440;BMP180;55421;51.600;5.718;2023-11-21T12:05:32;164390.59;;;9.60
68440;BMP180;55421;51.600;5.718;2023-11-21T12:08:03;164381.41;;;9.60
68440;BMP180;55421;51.600;5.718;2023-11-21T12:10:36;164360.00;;;9.58
68440;BMP180;55421;51.600;5.718;2023-11-21T12:13:07;164339.20;;;9.50
68440;BMP180;55421;51.600;5.718;2023-11-21T12:15:34;164322.80;;;9.50
68440;BMP180;55421;51.600;5.718;2023-11-21T12:18:02;164305.20;;;9.40
68440;BMP180;55421;51.600;5.718;2023-11-21T12:20:30;164292.41;;;9.40
68440;BMP180;55421;51.600;5.718;2023-11-21T12:22:59;164282.80;;;9.40
68440;BMP180;55421;51.600;5.718;2023-11-21T12:25:28;164269.20;;;9.34
68440;BMP180;55421;51.600;5.718;2023-11-21T12:27:56;164270.20;;;9.30
68440;BMP180;55421;51.600;5.718;2023-11-21T12:30:26;164273.20;;;9.40
68440;BMP180;55421;51.600;5.718;2023-11-21T12:32:55;164270.00;;;9.34
68440;BMP180;55421;51.600;5.718;2023-11-21T12:35:25;164270.20;;;9.34
68440;BMP180;55421;51.600;5.718;2023-11-21T12:37:54;164271.20;;;9.38
68440;BMP180;55421;51.600;5.718;2023-11-21T12:40:21;164272.41;;;9.38
68440;BMP180;55421;51.600;5.718;2023-11-21T12:42:52;164269.00;;;9.32
68440;BMP180;55421;51.600;5.718;2023-11-21T12:45:25;164266.00;;;9.30
68440;BMP180;55421;51.600;5.718;2023-11-21T12:50:25;164261.00;;;9.30
68440;BMP180;55421;51.600;5.718;2023-11-21T12:53:03;164271.20;;;9.34
68440;BMP180;55421;51.600;5.718;2023-11-21T12:55:33;164289.20;;;9.40
68440;BMP180;55421;51.600;5.718;2023-11-21T12:58:09;164304.41;;;9.40
68440;BMP180;55421;51.600;5.718;2023-11-21T13:00:39;164314.80;;;9.44
68440;BMP180;55421;51.600;5.718;2023-11-21T13:03:11;164323.20;;;9.50
68440;BMP180;55421;51.600;5.718;2023-11-21T13:05:48;164332.41;;;9.50
68440;BMP180;55421;51.600;5.718;2023-11-21T13:08:17;164346.41;;;9.50
68440;BMP180;55421;51.600;5.718;2023-11-21T13:10:55;164363.41;;;9.60
68440;BMP180;55421;51.600;5.718;2023-11-21T13:13:24;164389.41;;;9.60
68440;BMP180;55421;51.600;5.718;2023-11-21T13:15:54;164410.59;;;9.70
68440;BMP180;55421;51.600;5.718;2023-11-21T13:18:24;164413.00;;;9.70
68440;BMP180;55421;51.600;5.718;2023-11-21T13:20:54;164409.00;;;9.70
68440;BMP180;55421;51.600;5.718;2023-11-21T13:23:22;164400.20;;;9.64
68440;BMP180;55421;51.600;5.718;2023-11-21T13:25:50;164381.00;;;9.60
68440;BMP180;55421;51.600;5.718;2023-11-21T13:28:17;164381.00;;;9.60
68440;BMP180;55421;51.600;5.718;2023-11-21T13:30:48;164382.20;;;9.60
68440;BMP180;55421;51.600;5.718;2023-11-21T13:33:15;164388.20;;;9.60
68440;BMP180;55421;51.600;5.718;2023-11-21T13:35:48;164382.20;;;9.60
68440;BMP180;55421;51.600;5.718;2023-11-21T13:38:18;164378.59;;;9.60
68440;BMP180;55421;51.600;5.718;2023-11-21T13:40:51;164380.20;;;9.60
68440;BMP180;55421;51.600;5.718;2023-11-21T13:43:22;164382.20;;;9.60
68440;BMP180;55421;51.600;5.718;2023-11-21T13:45:53;164395.41;;;9.60
68440;BMP180;55421;51.600;5.718;2023-11-21T13:48:27;164405.00;;;9.70
68440;BMP180;55421;51.600;5.718;2023-11-21T13:51:14;164413.41;;;9.70
68440;BMP180;55421;51.600;5.718;2023-11-21T13:53:47;164424.59;;;9.70
68440;BMP180;55421;51.600;5.718;2023-11-21T13:56:16;164443.80;;;9.76
68440;BMP180;55421;51.600;5.718;2023-11-21T13:58:47;164462.20;;;9.80
68440;BMP180;55421;51.600;5.718;2023-11-21T14:01:23;164491.41;;;9.84
68440;BMP180;55421;51.600;5.718;2023-11-21T14:04:00;164504.59;;;9.90
68440;BMP180;55421;51.600;5.718;2023-11-21T14:06:50;164520.80;;;9.90
68440;BMP180;55421;51.600;5.718;2023-11-21T14:09:22;164529.20;;;9.98
68440;BMP180;55421;51.600;5.718;2023-11-21T14:11:52;164530.00;;;9.98
68440;BMP180;55421;51.600;5.718;2023-11-21T14:14:21;164530.41;;;9.98
68440;BMP180;55421;51.600;5.718;2023-11-21T14:16:48;164525.59;;;9.90
68440;BMP180;55421;51.600;5.718;2023-11-21T14:19:19;164524.41;;;9.90
68440;BMP180;55421;51.600;5.718;2023-11-21T14:21:47;164532.41;;;10.00
68440;BMP180;55421;51.600;5.718;2023-11-21T14:24:17;164538.41;;;10.00
68440;BMP180;55421;51.600;5.718;2023-11-21T14:26:46;164542.00;;;10.00
68440;BMP180;55421;51.600;5.718;2023-11-21T14:29:15;164539.20;;;10.00